St Pierre — FIDX — position and weather

sailwx.info

Track history (hours):
 
Tides and Currents Weather Stations Pressure Air Temp Water Temp Dewpoint Dewpoint Depression Visibility Wind Speed Wind Dir Waves Ship Positions

St Pierre

Last reported at 2016-Sep-28 02:33 UTC. Time now 2016-Sep-28 03:26 UTC.
Position N 47°12' W 001°37'.

Length 84 m; draft 5.8 m.

Type: Cargo ship. MMSI: 228024800.

Date/timePositionNaut miles runAvg speedWind from/ knotsBaromVisibWave heightAir tempDewpointWater temp
2016-Sep-28 02:33N 47°12' W 001°37'0 0.0
2016-Sep-28 01:33N 47°12' W 001°37'0 0.0
2016-Sep-27 23:33N 47°12' W 001°37'0 0.0
2016-Sep-27 19:33N 47°12' W 001°37'0 0.0
2016-Sep-27 14:33N 47°12' W 001°37'0 0.0
2016-Sep-27 13:33N 47°12' W 001°37'0 0.0
2016-Sep-27 10:31N 47°12' W 001°37'0 0.0
2016-Sep-27 00:33N 47°12' W 001°37'0 0.0
2016-Sep-26 20:33N 47°12' W 001°37'0 0.0
2016-Sep-26 19:33N 47°12' W 001°37'0 0.0
2016-Sep-26 15:33N 47°12' W 001°37'0 0.0
2016-Sep-26 13:28N 47°12' W 001°37'0 0.0
2016-Sep-26 11:28N 47°12' W 001°37'0 0.0
2016-Sep-26 08:33N 47°12' W 001°37'0 0.0
2016-Sep-26 02:33N 47°12' W 001°37'0 0.0
2016-Sep-26 01:33N 47°12' W 001°37'0 0.0
2016-Sep-26 00:33N 47°12' W 001°37'0 0.0
2016-Sep-25 21:33N 47°12' W 001°37'0 0.0
2016-Sep-25 17:33N 47°12' W 001°37'0 0.0
2016-Sep-25 16:33N 47°12' W 001°37'0 0.0
2016-Sep-25 15:33N 47°12' W 001°37'0 0.0
2016-Sep-25 14:33N 47°12' W 001°37'0 0.0
2016-Sep-25 12:33N 47°12' W 001°37'0 0.0
2016-Sep-25 11:33N 47°12' W 001°37'0 0.0
2016-Sep-25 10:33N 47°12' W 001°37'0 0.0
2016-Sep-25 09:33N 47°12' W 001°37'0 0.0
2016-Sep-25 07:33N 47°12' W 001°37'0 0.0
2016-Sep-25 04:33N 47°12' W 001°37'0 0.0
2016-Sep-25 00:33N 47°12' W 001°37'0 0.0
2016-Sep-24 22:33N 47°12' W 001°37'0 0.0
2016-Sep-24 21:33N 47°12' W 001°37'0 0.0
2016-Sep-24 19:33N 47°12' W 001°37'0 0.0
2016-Sep-24 18:33N 47°12' W 001°37'0 0.0
2016-Sep-24 17:33N 47°12' W 001°37'0 0.0
2016-Sep-24 16:33N 47°12' W 001°37'0 0.0
2016-Sep-24 14:33N 47°12' W 001°37'0 0.0
2016-Sep-24 12:33N 47°12' W 001°37'0 0.0
2016-Sep-24 10:33N 47°12' W 001°37'0 0.0
2016-Sep-24 09:33N 47°12' W 001°37'0 0.0
2016-Sep-24 03:33N 47°12' W 001°37'0 0.0
2016-Sep-24 02:33N 47°12' W 001°37'0 0.0
2016-Sep-24 01:33N 47°12' W 001°37'0 0.0
2016-Sep-24 00:33N 47°12' W 001°37'0 0.0
2016-Sep-23 19:33N 47°12' W 001°37'0 0.0
2016-Sep-23 17:33N 47°12' W 001°37'1 0.7
2016-Sep-23 16:33N 47°12' W 001°38'0 0.0
2016-Sep-23 13:14N 47°12' W 001°38'9 1.3
2016-Sep-23 06:31N 47°14' W 001°51'20 9.9
2016-Sep-23 04:31N 47°10' W 002°19'5 5.4
2016-Sep-23 03:33N 47°05' W 002°21'0 0.2
2016-Sep-23 02:32N 47°05' W 002°21'0 0.2
2016-Sep-23 01:32N 47°05' W 002°21'0 0.2
2016-Sep-23 00:32N 47°05' W 002°21'1413.8
2016-Sep-22 23:33N 47°17' W 002°11'23 7.7
2016-Sep-22 20:33N 47°12' W 001°38'30 3.7
2016-Sep-22 12:32N 47°05' W 002°21'11 1.4
2016-Sep-22 04:33N 47°15' W 002°13'8 8.1
2016-Sep-22 03:33N 47°08' W 002°20'4 1.2
2016-Sep-22 00:33N 47°05' W 002°21'0 0.2
2016-Sep-21 23:34N 47°05' W 002°21'1010.0
2016-Sep-21 22:33N 47°14' W 002°16'26 8.6
2016-Sep-21 19:34N 47°12' W 001°38'27 2.7
2016-Sep-21 09:32N 47°11' W 002°18'9 9.5
2016-Sep-21 08:33N 47°18' W 002°09'1 0.2
2016-Sep-21 05:33N 47°18' W 002°08'0 0.0
2016-Sep-21 03:33N 47°18' W 002°08'0 0.0
2016-Sep-21 02:33N 47°18' W 002°08'0 0.0
2016-Sep-20 17:33N 47°18' W 002°08'0 0.0
2016-Sep-20 14:33N 47°18' W 002°08'0 0.0
2016-Sep-20 13:33N 47°18' W 002°08'0 0.0
2016-Sep-20 10:33N 47°18' W 002°08'0 0.0
2016-Sep-20 08:33N 47°18' W 002°08'0 0.0
2016-Sep-20 07:33N 47°18' W 002°08'0 0.0
2016-Sep-20 06:33N 47°18' W 002°08'0 0.0
2016-Sep-20 02:33N 47°18' W 002°08'0 0.0
2016-Sep-19 23:33N 47°18' W 002°08'0 0.0
2016-Sep-19 19:33N 47°18' W 002°08'0 0.0
2016-Sep-19 18:33N 47°18' W 002°08'0 0.0
2016-Sep-19 16:24N 47°18' W 002°08'0 0.0
2016-Sep-19 14:33N 47°18' W 002°08'0 0.0
2016-Sep-19 13:32N 47°18' W 002°08'0 0.0
2016-Sep-19 12:33N 47°18' W 002°08'0 0.0
2016-Sep-19 11:31N 47°18' W 002°08'0 0.0
2016-Sep-19 09:31N 47°18' W 002°08'0 0.0
2016-Sep-19 07:33N 47°18' W 002°08'0 0.0
2016-Sep-19 06:33N 47°18' W 002°08'0 0.0
2016-Sep-19 03:33N 47°18' W 002°08'0 0.0
2016-Sep-19 02:33N 47°18' W 002°08'0 0.0
2016-Sep-19 00:32N 47°18' W 002°08'0 0.0
2016-Sep-18 19:33N 47°18' W 002°08'0 0.0
2016-Sep-18 15:32N 47°18' W 002°08'0 0.0
2016-Sep-18 14:33N 47°18' W 002°08'0 0.0
2016-Sep-18 10:33N 47°18' W 002°08'0 0.0
2016-Sep-18 09:33N 47°18' W 002°08'8 1.1
2016-Sep-18 02:33N 47°17' W 001°57'  
Track history (hours):
 
Tides and Currents Weather Stations Pressure Air Temp Water Temp Dewpoint Dewpoint Depression Visibility Wind Speed Wind Dir Waves Ship Positions

St Pierre

Last reported at 2016-Sep-28 02:33 UTC. Time now 2016-Sep-28 03:26 UTC.
Position N 47°12' W 001°37'.

Length 84 m; draft 5.8 m.

Type: Cargo ship. MMSI: 228024800.

Date/timePositionNaut miles runAvg speedWind from/ knotsBaromVisibWave heightAir tempDewpointWater temp
2016-Sep-28 02:33N 47°12' W 001°37'0 0.0
2016-Sep-28 01:33N 47°12' W 001°37'0 0.0
2016-Sep-27 23:33N 47°12' W 001°37'0 0.0
2016-Sep-27 19:33N 47°12' W 001°37'0 0.0
2016-Sep-27 14:33N 47°12' W 001°37'0 0.0
2016-Sep-27 13:33N 47°12' W 001°37'0 0.0
2016-Sep-27 10:31N 47°12' W 001°37'0 0.0
2016-Sep-27 00:33N 47°12' W 001°37'0 0.0
2016-Sep-26 20:33N 47°12' W 001°37'0 0.0
2016-Sep-26 19:33N 47°12' W 001°37'0 0.0
2016-Sep-26 15:33N 47°12' W 001°37'0 0.0
2016-Sep-26 13:28N 47°12' W 001°37'0 0.0
2016-Sep-26 11:28N 47°12' W 001°37'0 0.0
2016-Sep-26 08:33N 47°12' W 001°37'0 0.0
2016-Sep-26 02:33N 47°12' W 001°37'0 0.0
2016-Sep-26 01:33N 47°12' W 001°37'0 0.0
2016-Sep-26 00:33N 47°12' W 001°37'0 0.0
2016-Sep-25 21:33N 47°12' W 001°37'0 0.0
2016-Sep-25 17:33N 47°12' W 001°37'0 0.0
2016-Sep-25 16:33N 47°12' W 001°37'0 0.0
2016-Sep-25 15:33N 47°12' W 001°37'0 0.0
2016-Sep-25 14:33N 47°12' W 001°37'0 0.0
2016-Sep-25 12:33N 47°12' W 001°37'0 0.0
2016-Sep-25 11:33N 47°12' W 001°37'0 0.0
2016-Sep-25 10:33N 47°12' W 001°37'0 0.0
2016-Sep-25 09:33N 47°12' W 001°37'0 0.0
2016-Sep-25 07:33N 47°12' W 001°37'0 0.0
2016-Sep-25 04:33N 47°12' W 001°37'0 0.0
2016-Sep-25 00:33N 47°12' W 001°37'0 0.0
2016-Sep-24 22:33N 47°12' W 001°37'0 0.0
2016-Sep-24 21:33N 47°12' W 001°37'0 0.0
2016-Sep-24 19:33N 47°12' W 001°37'0 0.0
2016-Sep-24 18:33N 47°12' W 001°37'0 0.0
2016-Sep-24 17:33N 47°12' W 001°37'0 0.0
2016-Sep-24 16:33N 47°12' W 001°37'0 0.0
2016-Sep-24 14:33N 47°12' W 001°37'0 0.0
2016-Sep-24 12:33N 47°12' W 001°37'0 0.0
2016-Sep-24 10:33N 47°12' W 001°37'0 0.0
2016-Sep-24 09:33N 47°12' W 001°37'0 0.0
2016-Sep-24 03:33N 47°12' W 001°37'0 0.0
2016-Sep-24 02:33N 47°12' W 001°37'0 0.0
2016-Sep-24 01:33N 47°12' W 001°37'0 0.0
2016-Sep-24 00:33N 47°12' W 001°37'0 0.0
2016-Sep-23 19:33N 47°12' W 001°37'0 0.0
2016-Sep-23 17:33N 47°12' W 001°37'1 0.7
2016-Sep-23 16:33N 47°12' W 001°38'0 0.0
2016-Sep-23 13:14N 47°12' W 001°38'9 1.3
2016-Sep-23 06:31N 47°14' W 001°51'20 9.9
2016-Sep-23 04:31N 47°10' W 002°19'5 5.4
2016-Sep-23 03:33N 47°05' W 002°21'0 0.2
2016-Sep-23 02:32N 47°05' W 002°21'0 0.2
2016-Sep-23 01:32N 47°05' W 002°21'0 0.2
2016-Sep-23 00:32N 47°05' W 002°21'1413.8
2016-Sep-22 23:33N 47°17' W 002°11'23 7.7
2016-Sep-22 20:33N 47°12' W 001°38'30 3.7
2016-Sep-22 12:32N 47°05' W 002°21'11 1.4
2016-Sep-22 04:33N 47°15' W 002°13'8 8.1
2016-Sep-22 03:33N 47°08' W 002°20'4 1.2
2016-Sep-22 00:33N 47°05' W 002°21'0 0.2
2016-Sep-21 23:34N 47°05' W 002°21'1010.0
2016-Sep-21 22:33N 47°14' W 002°16'26 8.6
2016-Sep-21 19:34N 47°12' W 001°38'27 2.7
2016-Sep-21 09:32N 47°11' W 002°18'9 9.5
2016-Sep-21 08:33N 47°18' W 002°09'1 0.2
2016-Sep-21 05:33N 47°18' W 002°08'0 0.0
2016-Sep-21 03:33N 47°18' W 002°08'0 0.0
2016-Sep-21 02:33N 47°18' W 002°08'0 0.0
2016-Sep-20 17:33N 47°18' W 002°08'0 0.0
2016-Sep-20 14:33N 47°18' W 002°08'0 0.0
2016-Sep-20 13:33N 47°18' W 002°08'0 0.0
2016-Sep-20 10:33N 47°18' W 002°08'0 0.0
2016-Sep-20 08:33N 47°18' W 002°08'0 0.0
2016-Sep-20 07:33N 47°18' W 002°08'0 0.0
2016-Sep-20 06:33N 47°18' W 002°08'0 0.0
2016-Sep-20 02:33N 47°18' W 002°08'0 0.0
2016-Sep-19 23:33N 47°18' W 002°08'0 0.0
2016-Sep-19 19:33N 47°18' W 002°08'0 0.0
2016-Sep-19 18:33N 47°18' W 002°08'0 0.0
2016-Sep-19 16:24N 47°18' W 002°08'0 0.0
2016-Sep-19 14:33N 47°18' W 002°08'0 0.0
2016-Sep-19 13:32N 47°18' W 002°08'0 0.0
2016-Sep-19 12:33N 47°18' W 002°08'0 0.0
2016-Sep-19 11:31N 47°18' W 002°08'0 0.0
2016-Sep-19 09:31N 47°18' W 002°08'0 0.0
2016-Sep-19 07:33N 47°18' W 002°08'0 0.0
2016-Sep-19 06:33N 47°18' W 002°08'0 0.0
2016-Sep-19 03:33N 47°18' W 002°08'0 0.0
2016-Sep-19 02:33N 47°18' W 002°08'0 0.0
2016-Sep-19 00:32N 47°18' W 002°08'0 0.0
2016-Sep-18 19:33N 47°18' W 002°08'0 0.0
2016-Sep-18 15:32N 47°18' W 002°08'0 0.0
2016-Sep-18 14:33N 47°18' W 002°08'0 0.0
2016-Sep-18 10:33N 47°18' W 002°08'0 0.0
2016-Sep-18 09:33N 47°18' W 002°08'8 1.1
2016-Sep-18 02:33N 47°17' W 001°57'  

Dump ship's entire track history